sensor_id;sensor_type;location;lat;lon;timestamp;P1;durP1;ratioP1;P2;durP2;ratioP2
41629;SDS011;27322;49.488;8.480;2022-08-11T00:00:05;4.65;;;1.90;;
41629;SDS011;27322;49.488;8.480;2022-08-11T00:02:46;3.63;;;1.88;;
41629;SDS011;27322;49.488;8.480;2022-08-11T00:05:18;4.22;;;2.10;;
41629;SDS011;27322;49.488;8.480;2022-08-11T00:07:55;3.80;;;1.75;;
41629;SDS011;27322;49.488;8.480;2022-08-11T00:10:26;5.82;;;2.03;;
41629;SDS011;27322;49.488;8.480;2022-08-11T00:12:58;7.22;;;1.90;;
41629;SDS011;27322;49.488;8.480;2022-08-11T00:15:27;5.50;;;2.22;;
41629;SDS011;27322;49.488;8.480;2022-08-11T00:18:02;3.60;;;1.80;;
41629;SDS011;27322;49.488;8.480;2022-08-11T00:20:33;3.80;;;1.98;;
41629;SDS011;27322;49.488;8.480;2022-08-11T00:23:13;2.72;;;1.60;;
41629;SDS011;27322;49.488;8.480;2022-08-11T00:25:41;3.47;;;1.63;;
41629;SDS011;27322;49.488;8.480;2022-08-11T00:30:47;2.90;;;1.50;;
41629;SDS011;27322;49.488;8.480;2022-08-11T00:33:15;3.50;;;1.73;;
41629;SDS011;27322;49.488;8.480;2022-08-11T00:35:42;5.78;;;1.80;;
41629;SDS011;27322;49.488;8.480;2022-08-11T00:38:09;3.35;;;1.65;;
41629;SDS011;27322;49.488;8.480;2022-08-11T00:40:38;3.17;;;1.80;;
41629;SDS011;27322;49.488;8.480;2022-08-11T00:43:14;3.08;;;1.80;;
41629;SDS011;27322;49.488;8.480;2022-08-11T00:48:44;3.03;;;1.67;;
41629;SDS011;27322;49.488;8.480;2022-08-11T00:51:40;4.47;;;1.67;;
41629;SDS011;27322;49.488;8.480;2022-08-11T01:00:17;3.42;;;1.50;;
41629;SDS011;27322;49.488;8.480;2022-08-11T01:27:31;4.23;;;1.60;;
41629;SDS011;27322;49.488;8.480;2022-08-11T01:47:25;3.55;;;1.70;;
41629;SDS011;27322;49.488;8.480;2022-08-11T01:58:46;4.85;;;1.73;;
41629;SDS011;27322;49.488;8.480;2022-08-11T02:06:49;3.42;;;1.70;;
41629;SDS011;27322;49.488;8.480;2022-08-11T02:15:12;3.20;;;1.48;;
41629;SDS011;27322;49.488;8.480;2022-08-11T02:20:34;4.78;;;1.65;;
41629;SDS011;27322;49.488;8.480;2022-08-11T02:23:36;3.87;;;1.53;;
41629;SDS011;27322;49.488;8.480;2022-08-11T02:26:19;3.05;;;1.60;;
41629;SDS011;27322;49.488;8.480;2022-08-11T02:31:21;3.17;;;1.75;;
41629;SDS011;27322;49.488;8.480;2022-08-11T02:43:10;3.08;;;1.55;;
41629;SDS011;27322;49.488;8.480;2022-08-11T02:51:03;3.45;;;1.65;;
41629;SDS011;27322;49.488;8.480;2022-08-11T02:53:38;2.50;;;1.70;;
41629;SDS011;27322;49.488;8.480;2022-08-11T03:08:10;4.15;;;1.80;;
41629;SDS011;27322;49.488;8.480;2022-08-11T03:22:58;3.42;;;1.80;;
41629;SDS011;27322;49.488;8.480;2022-08-11T03:33:47;3.80;;;1.75;;
41629;SDS011;27322;49.488;8.480;2022-08-11T04:26:20;3.80;;;2.10;;
41629;SDS011;27322;49.488;8.480;2022-08-11T04:34:50;4.50;;;2.10;;
41629;SDS011;27322;49.488;8.480;2022-08-11T04:37:48;4.45;;;2.15;;
41629;SDS011;27322;49.488;8.480;2022-08-11T04:46:00;3.95;;;2.45;;
41629;SDS011;27322;49.488;8.480;2022-08-11T04:48:52;5.57;;;3.00;;
41629;SDS011;27322;49.488;8.480;2022-08-11T05:10:47;6.55;;;2.63;;
41629;SDS011;27322;49.488;8.480;2022-08-11T05:16:21;7.93;;;3.13;;
41629;SDS011;27322;49.488;8.480;2022-08-11T05:19:14;8.48;;;3.15;;
41629;SDS011;27322;49.488;8.480;2022-08-11T05:22:01;7.47;;;3.05;;
41629;SDS011;27322;49.488;8.480;2022-08-11T05:24:49;7.65;;;3.17;;
41629;SDS011;27322;49.488;8.480;2022-08-11T05:28:04;7.60;;;3.22;;
41629;SDS011;27322;49.488;8.480;2022-08-11T05:30:55;8.32;;;3.17;;
41629;SDS011;27322;49.488;8.480;2022-08-11T05:33:48;5.05;;;2.72;;
41629;SDS011;27322;49.488;8.480;2022-08-11T05:39:16;7.40;;;3.00;;
41629;SDS011;27322;49.488;8.480;2022-08-11T05:42:04;6.10;;;3.17;;
41629;SDS011;27322;49.488;8.480;2022-08-11T05:44:49;5.32;;;2.60;;
41629;SDS011;27322;49.488;8.480;2022-08-11T05:47:36;5.35;;;3.20;;
41629;SDS011;27322;49.488;8.480;2022-08-11T05:50:21;6.50;;;2.88;;
41629;SDS011;27322;49.488;8.480;2022-08-11T05:53:10;6.32;;;2.80;;
41629;SDS011;27322;49.488;8.480;2022-08-11T05:55:57;8.93;;;2.83;;
41629;SDS011;27322;49.488;8.480;2022-08-11T05:58:45;6.15;;;2.83;;
41629;SDS011;27322;49.488;8.480;2022-08-11T06:01:25;5.30;;;2.70;;
41629;SDS011;27322;49.488;8.480;2022-08-11T06:03:56;6.22;;;3.25;;
41629;SDS011;27322;49.488;8.480;2022-08-11T06:11:53;7.57;;;3.25;;
41629;SDS011;27322;49.488;8.480;2022-08-11T06:14:22;7.32;;;2.80;;
41629;SDS011;27322;49.488;8.480;2022-08-11T06:16:49;11.45;;;3.28;;
41629;SDS011;27322;49.488;8.480;2022-08-11T06:19:19;7.97;;;3.33;;
41629;SDS011;27322;49.488;8.480;2022-08-11T06:21:47;12.68;;;3.72;;
41629;SDS011;27322;49.488;8.480;2022-08-11T06:24:16;10.60;;;3.10;;
41629;SDS011;27322;49.488;8.480;2022-08-11T06:26:49;7.70;;;3.33;;
41629;SDS011;27322;49.488;8.480;2022-08-11T06:31:49;9.30;;;3.30;;
41629;SDS011;27322;49.488;8.480;2022-08-11T06:45:28;7.20;;;3.10;;
41629;SDS011;27322;49.488;8.480;2022-08-11T06:48:20;10.40;;;3.10;;
41629;SDS011;27322;49.488;8.480;2022-08-11T06:50:48;6.78;;;2.78;;
41629;SDS011;27322;49.488;8.480;2022-08-11T06:53:49;6.97;;;3.00;;
41629;SDS011;27322;49.488;8.480;2022-08-11T06:56:24;8.10;;;2.88;;
41629;SDS011;27322;49.488;8.480;2022-08-11T06:59:12;8.43;;;2.85;;
41629;SDS011;27322;49.488;8.480;2022-08-11T07:02:14;6.55;;;2.70;;
41629;SDS011;27322;49.488;8.480;2022-08-11T07:14:31;6.35;;;2.53;;
41629;SDS011;27322;49.488;8.480;2022-08-11T07:17:18;9.52;;;3.85;;
41629;SDS011;27322;49.488;8.480;2022-08-11T07:20:07;7.07;;;3.28;;
41629;SDS011;27322;49.488;8.480;2022-08-11T07:22:54;12.35;;;2.80;;
41629;SDS011;27322;49.488;8.480;2022-08-11T07:25:40;9.02;;;2.17;;
41629;SDS011;27322;49.488;8.480;2022-08-11T07:28:46;4.57;;;2.17;;
41629;SDS011;27322;49.488;8.480;2022-08-11T07:36:55;7.03;;;2.28;;
41629;SDS011;27322;49.488;8.480;2022-08-11T07:39:24;7.18;;;1.92;;
41629;SDS011;27322;49.488;8.480;2022-08-11T07:41:53;8.30;;;1.73;;
41629;SDS011;27322;49.488;8.480;2022-08-11T07:44:21;5.40;;;2.05;;
41629;SDS011;27322;49.488;8.480;2022-08-11T07:46:51;3.10;;;1.55;;
41629;SDS011;27322;49.488;8.480;2022-08-11T07:49:38;5.82;;;2.00;;
41629;SDS011;27322;49.488;8.480;2022-08-11T07:52:28;7.22;;;1.80;;
41629;SDS011;27322;49.488;8.480;2022-08-11T07:55:28;2.78;;;1.70;;
41629;SDS011;27322;49.488;8.480;2022-08-11T08:00:53;3.80;;;1.80;;
41629;SDS011;27322;49.488;8.480;2022-08-11T08:03:39;3.28;;;1.50;;
41629;SDS011;27322;49.488;8.480;2022-08-11T08:06:25;4.10;;;1.48;;
41629;SDS011;27322;49.488;8.480;2022-08-11T08:09:11;4.03;;;1.70;;
41629;SDS011;27322;49.488;8.480;2022-08-11T08:11:56;7.80;;;2.10;;
41629;SDS011;27322;49.488;8.480;2022-08-11T08:14:42;5.13;;;1.73;;
41629;SDS011;27322;49.488;8.480;2022-08-11T08:17:27;4.63;;;1.80;;
41629;SDS011;27322;49.488;8.480;2022-08-11T08:20:13;3.75;;;1.95;;
41629;SDS011;27322;49.488;8.480;2022-08-11T08:22:41;8.88;;;2.28;;
41629;SDS011;27322;49.488;8.480;2022-08-11T08:25:08;6.03;;;1.80;;
41629;SDS011;27322;49.488;8.480;2022-08-11T08:27:35;5.10;;;1.77;;
41629;SDS011;27322;49.488;8.480;2022-08-11T08:30:04;6.55;;;2.35;;
41629;SDS011;27322;49.488;8.480;2022-08-11T08:32:49;4.80;;;2.05;;
41629;SDS011;27322;49.488;8.480;2022-08-11T08:35:15;4.63;;;1.63;;
41629;SDS011;27322;49.488;8.480;2022-08-11T08:37:42;5.35;;;2.05;;
41629;SDS011;27322;49.488;8.480;2022-08-11T08:40:08;4.85;;;2.35;;
41629;SDS011;27322;49.488;8.480;2022-08-11T08:42:39;3.80;;;2.03;;
41629;SDS011;27322;49.488;8.480;2022-08-11T08:45:12;4.00;;;2.00;;
41629;SDS011;27322;49.488;8.480;2022-08-11T08:47:40;6.63;;;2.20;;
41629;SDS011;27322;49.488;8.480;2022-08-11T08:50:13;5.57;;;1.80;;
41629;SDS011;27322;49.488;8.480;2022-08-11T08:52:52;6.80;;;2.25;;
41629;SDS011;27322;49.488;8.480;2022-08-11T08:55:22;5.18;;;2.53;;
41629;SDS011;27322;49.488;8.480;2022-08-11T08:57:51;2.80;;;1.63;;
41629;SDS011;27322;49.488;8.480;2022-08-11T09:00:18;3.50;;;2.20;;
41629;SDS011;27322;49.488;8.480;2022-08-11T09:02:45;4.65;;;1.85;;
41629;SDS011;27322;49.488;8.480;2022-08-11T09:05:12;4.93;;;2.10;;
41629;SDS011;27322;49.488;8.480;2022-08-11T09:07:43;4.63;;;1.70;;
41629;SDS011;27322;49.488;8.480;2022-08-11T09:10:11;3.08;;;1.63;;
41629;SDS011;27322;49.488;8.480;2022-08-11T09:12:41;3.60;;;1.65;;
41629;SDS011;27322;49.488;8.480;2022-08-11T09:15:07;5.32;;;1.80;;
41629;SDS011;27322;49.488;8.480;2022-08-11T09:17:37;4.70;;;1.90;;
41629;SDS011;27322;49.488;8.480;2022-08-11T09:20:11;3.75;;;1.65;;
41629;SDS011;27322;49.488;8.480;2022-08-11T09:22:40;3.67;;;1.90;;
41629;SDS011;27322;49.488;8.480;2022-08-11T09:25:28;5.47;;;1.90;;
41629;SDS011;27322;49.488;8.480;2022-08-11T09:28:14;3.33;;;1.70;;
41629;SDS011;27322;49.488;8.480;2022-08-11T09:30:42;3.47;;;1.75;;
41629;SDS011;27322;49.488;8.480;2022-08-11T09:33:09;7.45;;;2.13;;
41629;SDS011;27322;49.488;8.480;2022-08-11T09:35:37;3.90;;;1.70;;
41629;SDS011;27322;49.488;8.480;2022-08-11T09:38:08;4.38;;;1.90;;
41629;SDS011;27322;49.488;8.480;2022-08-11T09:40:55;7.10;;;1.85;;
41629;SDS011;27322;49.488;8.480;2022-08-11T09:43:21;11.75;;;1.85;;
41629;SDS011;27322;49.488;8.480;2022-08-11T09:46:07;5.10;;;1.60;;
41629;SDS011;27322;49.488;8.480;2022-08-11T09:48:39;3.80;;;1.67;;
41629;SDS011;27322;49.488;8.480;2022-08-11T09:51:06;3.58;;;1.60;;
41629;SDS011;27322;49.488;8.480;2022-08-11T09:53:37;5.90;;;1.98;;
41629;SDS011;27322;49.488;8.480;2022-08-11T09:56:06;3.60;;;1.40;;
41629;SDS011;27322;49.488;8.480;2022-08-11T09:59:00;2.63;;;1.40;;
41629;SDS011;27322;49.488;8.480;2022-08-11T10:02:02;4.07;;;1.50;;
41629;SDS011;27322;49.488;8.480;2022-08-11T10:04:26;3.55;;;1.38;;
41629;SDS011;27322;49.488;8.480;2022-08-11T10:07:00;4.63;;;1.40;;
41629;SDS011;27322;49.488;8.480;2022-08-11T10:09:39;4.28;;;1.50;;
41629;SDS011;27322;49.488;8.480;2022-08-11T10:12:10;4.78;;;1.85;;
41629;SDS011;27322;49.488;8.480;2022-08-11T10:14:45;13.73;;;1.60;;
41629;SDS011;27322;49.488;8.480;2022-08-11T10:17:33;3.55;;;1.48;;
41629;SDS011;27322;49.488;8.480;2022-08-11T10:20:02;3.65;;;1.63;;
41629;SDS011;27322;49.488;8.480;2022-08-11T10:22:32;3.65;;;1.40;;
41629;SDS011;27322;49.488;8.480;2022-08-11T10:25:17;7.88;;;1.50;;
41629;SDS011;27322;49.488;8.480;2022-08-11T10:28:03;3.13;;;1.40;;
41629;SDS011;27322;49.488;8.480;2022-08-11T10:30:31;3.13;;;1.42;;
41629;SDS011;27322;49.488;8.480;2022-08-11T10:33:15;2.05;;;1.20;;
41629;SDS011;27322;49.488;8.480;2022-08-11T10:36:02;6.22;;;1.40;;
41629;SDS011;27322;49.488;8.480;2022-08-11T10:38:30;4.43;;;1.42;;
41629;SDS011;27322;49.488;8.480;2022-08-11T10:40:55;2.88;;;1.27;;
41629;SDS011;27322;49.488;8.480;2022-08-11T10:43:40;5.63;;;1.60;;
41629;SDS011;27322;49.488;8.480;2022-08-11T10:46:08;6.50;;;1.65;;
41629;SDS011;27322;49.488;8.480;2022-08-11T10:48:53;3.58;;;1.42;;
41629;SDS011;27322;49.488;8.480;2022-08-11T10:51:21;5.75;;;1.50;;
41629;SDS011;27322;49.488;8.480;2022-08-11T10:54:09;2.90;;;1.33;;
41629;SDS011;27322;49.488;8.480;2022-08-11T10:56:54;4.47;;;1.40;;
41629;SDS011;27322;49.488;8.480;2022-08-11T10:59:38;4.40;;;1.40;;
41629;SDS011;27322;49.488;8.480;2022-08-11T11:02:06;4.32;;;1.48;;
41629;SDS011;27322;49.488;8.480;2022-08-11T11:07:23;9.30;;;1.60;;
41629;SDS011;27322;49.488;8.480;2022-08-11T11:10:01;3.63;;;1.13;;
41629;SDS011;27322;49.488;8.480;2022-08-11T11:15:18;4.53;;;1.80;;
41629;SDS011;27322;49.488;8.480;2022-08-11T11:18:08;6.20;;;1.40;;
41629;SDS011;27322;49.488;8.480;2022-08-11T11:20:42;2.22;;;1.15;;
41629;SDS011;27322;49.488;8.480;2022-08-11T11:31:49;4.07;;;1.50;;
41629;SDS011;27322;49.488;8.480;2022-08-11T11:34:45;5.15;;;1.42;;
41629;SDS011;27322;49.488;8.480;2022-08-11T11:37:15;4.07;;;1.38;;
41629;SDS011;27322;49.488;8.480;2022-08-11T11:39:42;6.82;;;1.70;;
41629;SDS011;27322;49.488;8.480;2022-08-11T11:42:09;5.50;;;1.58;;
41629;SDS011;27322;49.488;8.480;2022-08-11T11:44:39;6.50;;;1.60;;
41629;SDS011;27322;49.488;8.480;2022-08-11T11:47:10;4.38;;;1.70;;
41629;SDS011;27322;49.488;8.480;2022-08-11T11:49:36;5.88;;;1.58;;
41629;SDS011;27322;49.488;8.480;2022-08-11T11:52:05;4.25;;;1.55;;
41629;SDS011;27322;49.488;8.480;2022-08-11T11:54:33;4.50;;;1.52;;
41629;SDS011;27322;49.488;8.480;2022-08-11T11:57:00;4.22;;;1.33;;
41629;SDS011;27322;49.488;8.480;2022-08-11T11:59:50;5.13;;;1.42;;
41629;SDS011;27322;49.488;8.480;2022-08-11T12:02:36;2.63;;;1.40;;
41629;SDS011;27322;49.488;8.480;2022-08-11T12:05:04;2.70;;;1.50;;
41629;SDS011;27322;49.488;8.480;2022-08-11T12:07:33;4.15;;;1.35;;
41629;SDS011;27322;49.488;8.480;2022-08-11T12:10:20;5.65;;;1.92;;
41629;SDS011;27322;49.488;8.480;2022-08-11T12:12:46;2.60;;;1.50;;
41629;SDS011;27322;49.488;8.480;2022-08-11T12:15:31;4.05;;;1.40;;
41629;SDS011;27322;49.488;8.480;2022-08-11T12:17:58;4.78;;;1.52;;
41629;SDS011;27322;49.488;8.480;2022-08-11T12:20:26;4.38;;;1.50;;
41629;SDS011;27322;49.488;8.480;2022-08-11T12:22:52;4.65;;;1.48;;
41629;SDS011;27322;49.488;8.480;2022-08-11T12:25:37;4.30;;;1.77;;
41629;SDS011;27322;49.488;8.480;2022-08-11T12:28:22;5.03;;;1.70;;
41629;SDS011;27322;49.488;8.480;2022-08-11T12:30:49;3.22;;;1.75;;
41629;SDS011;27322;49.488;8.480;2022-08-11T12:33:17;4.43;;;1.70;;
41629;SDS011;27322;49.488;8.480;2022-08-11T12:35:43;5.05;;;1.60;;
41629;SDS011;27322;49.488;8.480;2022-08-11T12:38:11;3.50;;;1.42;;
41629;SDS011;27322;49.488;8.480;2022-08-11T12:40:38;3.88;;;1.48;;
41629;SDS011;27322;49.488;8.480;2022-08-11T12:43:26;2.03;;;1.30;;
41629;SDS011;27322;49.488;8.480;2022-08-11T12:46:19;6.03;;;1.70;;
41629;SDS011;27322;49.488;8.480;2022-08-11T12:48:50;3.10;;;1.60;;
41629;SDS011;27322;49.488;8.480;2022-08-11T12:51:41;4.50;;;1.70;;
41629;SDS011;27322;49.488;8.480;2022-08-11T12:54:27;4.93;;;1.73;;
41629;SDS011;27322;49.488;8.480;2022-08-11T12:59:55;4.90;;;1.95;;
41629;SDS011;27322;49.488;8.480;2022-08-11T13:02:42;4.40;;;1.50;;
41629;SDS011;27322;49.488;8.480;2022-08-11T13:05:29;5.55;;;2.30;;
41629;SDS011;27322;49.488;8.480;2022-08-11T13:07:57;6.50;;;1.80;;
41629;SDS011;27322;49.488;8.480;2022-08-11T13:10:27;5.25;;;1.60;;
41629;SDS011;27322;49.488;8.480;2022-08-11T13:13:14;6.70;;;1.60;;
41629;SDS011;27322;49.488;8.480;2022-08-11T13:15:41;4.22;;;1.50;;
41629;SDS011;27322;49.488;8.480;2022-08-11T13:18:07;2.92;;;1.30;;
41629;SDS011;27322;49.488;8.480;2022-08-11T13:20:34;3.08;;;1.35;;
41629;SDS011;27322;49.488;8.480;2022-08-11T13:23:00;2.92;;;1.58;;
41629;SDS011;27322;49.488;8.480;2022-08-11T13:25:27;3.72;;;1.40;;
41629;SDS011;27322;49.488;8.480;2022-08-11T13:27:56;5.45;;;1.30;;
41629;SDS011;27322;49.488;8.480;2022-08-11T13:30:27;4.45;;;1.75;;
41629;SDS011;27322;49.488;8.480;2022-08-11T13:33:12;8.85;;;1.63;;
41629;SDS011;27322;49.488;8.480;2022-08-11T13:35:41;4.32;;;2.28;;
41629;SDS011;27322;49.488;8.480;2022-08-11T13:38:09;4.03;;;2.17;;
41629;SDS011;27322;49.488;8.480;2022-08-11T13:40:37;5.65;;;2.03;;
41629;SDS011;27322;49.488;8.480;2022-08-11T13:43:04;4.63;;;1.75;;
41629;SDS011;27322;49.488;8.480;2022-08-11T13:45:30;4.20;;;1.60;;
41629;SDS011;27322;49.488;8.480;2022-08-11T13:47:57;5.90;;;1.90;;
41629;SDS011;27322;49.488;8.480;2022-08-11T13:50:24;3.10;;;1.60;;
41629;SDS011;27322;49.488;8.480;2022-08-11T13:53:11;2.45;;;1.63;;
41629;SDS011;27322;49.488;8.480;2022-08-11T13:55:41;4.30;;;1.77;;
41629;SDS011;27322;49.488;8.480;2022-08-11T13:58:08;3.55;;;1.50;;
41629;SDS011;27322;49.488;8.480;2022-08-11T14:00:35;4.07;;;1.30;;
41629;SDS011;27322;49.488;8.480;2022-08-11T14:03:02;5.45;;;1.30;;
41629;SDS011;27322;49.488;8.480;2022-08-11T14:05:36;3.00;;;1.17;;
41629;SDS011;27322;49.488;8.480;2022-08-11T14:08:11;3.40;;;1.20;;
41629;SDS011;27322;49.488;8.480;2022-08-11T14:10:43;3.28;;;1.10;;
41629;SDS011;27322;49.488;8.480;2022-08-11T14:13:12;2.78;;;1.30;;
41629;SDS011;27322;49.488;8.480;2022-08-11T14:16:00;3.78;;;1.35;;
41629;SDS011;27322;49.488;8.480;2022-08-11T14:18:31;2.80;;;1.50;;
41629;SDS011;27322;49.488;8.480;2022-08-11T14:20:58;2.28;;;1.10;;
41629;SDS011;27322;49.488;8.480;2022-08-11T14:23:46;2.90;;;1.30;;
41629;SDS011;27322;49.488;8.480;2022-08-11T14:26:14;2.85;;;1.15;;
41629;SDS011;27322;49.488;8.480;2022-08-11T14:28:51;3.28;;;1.23;;
41629;SDS011;27322;49.488;8.480;2022-08-11T14:31:19;3.22;;;1.27;;
41629;SDS011;27322;49.488;8.480;2022-08-11T14:33:46;4.45;;;1.30;;
41629;SDS011;27322;49.488;8.480;2022-08-11T14:36:12;8.23;;;1.30;;
41629;SDS011;27322;49.488;8.480;2022-08-11T14:38:39;4.07;;;1.20;;
41629;SDS011;27322;49.488;8.480;2022-08-11T14:41:06;3.05;;;1.40;;
41629;SDS011;27322;49.488;8.480;2022-08-11T14:43:52;2.65;;;1.30;;
41629;SDS011;27322;49.488;8.480;2022-08-11T14:46:37;3.70;;;1.23;;
41629;SDS011;27322;49.488;8.480;2022-08-11T14:49:23;3.08;;;1.20;;
41629;SDS011;27322;49.488;8.480;2022-08-11T14:51:50;2.33;;;1.00;;
41629;SDS011;27322;49.488;8.480;2022-08-11T14:54:21;7.00;;;1.08;;
41629;SDS011;27322;49.488;8.480;2022-08-11T14:57:10;3.45;;;1.05;;
41629;SDS011;27322;49.488;8.480;2022-08-11T14:59:36;2.30;;;0.98;;
41629;SDS011;27322;49.488;8.480;2022-08-11T15:02:03;3.00;;;1.00;;
41629;SDS011;27322;49.488;8.480;2022-08-11T15:04:48;4.40;;;1.15;;
41629;SDS011;27322;49.488;8.480;2022-08-11T15:07:15;3.45;;;1.10;;
41629;SDS011;27322;49.488;8.480;2022-08-11T15:09:41;2.22;;;1.10;;
41629;SDS011;27322;49.488;8.480;2022-08-11T15:12:09;3.22;;;1.00;;
41629;SDS011;27322;49.488;8.480;2022-08-11T15:14:45;2.85;;;1.17;;
41629;SDS011;27322;49.488;8.480;2022-08-11T15:17:31;5.10;;;1.48;;
41629;SDS011;27322;49.488;8.480;2022-08-11T15:20:02;2.58;;;1.25;;
41629;SDS011;27322;49.488;8.480;2022-08-11T15:22:52;3.90;;;1.20;;
41629;SDS011;27322;49.488;8.480;2022-08-11T15:25:36;4.30;;;1.35;;
41629;SDS011;27322;49.488;8.480;2022-08-11T15:28:04;2.72;;;1.40;;
41629;SDS011;27322;49.488;8.480;2022-08-11T15:30:52;2.30;;;1.20;;
41629;SDS011;27322;49.488;8.480;2022-08-11T15:33:39;2.67;;;1.30;;
41629;SDS011;27322;49.488;8.480;2022-08-11T15:36:29;3.67;;;1.10;;
41629;SDS011;27322;49.488;8.480;2022-08-11T15:39:17;3.10;;;1.30;;
41629;SDS011;27322;49.488;8.480;2022-08-11T15:41:52;2.42;;;1.10;;
41629;SDS011;27322;49.488;8.480;2022-08-11T15:44:37;4.35;;;1.10;;
41629;SDS011;27322;49.488;8.480;2022-08-11T15:47:26;3.20;;;1.10;;
41629;SDS011;27322;49.488;8.480;2022-08-11T15:49:57;2.23;;;1.10;;
41629;SDS011;27322;49.488;8.480;2022-08-11T15:52:28;2.58;;;1.20;;
41629;SDS011;27322;49.488;8.480;2022-08-11T15:54:57;7.03;;;1.58;;
41629;SDS011;27322;49.488;8.480;2022-08-11T15:57:26;1.95;;;1.10;;
41629;SDS011;27322;49.488;8.480;2022-08-11T16:00:12;2.80;;;1.20;;
41629;SDS011;27322;49.488;8.480;2022-08-11T16:02:58;3.80;;;1.50;;
41629;SDS011;27322;49.488;8.480;2022-08-11T16:05:44;3.45;;;1.50;;
41629;SDS011;27322;49.488;8.480;2022-08-11T16:08:11;2.70;;;1.10;;
41629;SDS011;27322;49.488;8.480;2022-08-11T16:10:41;18.75;;;2.15;;
41629;SDS011;27322;49.488;8.480;2022-08-11T16:13:07;39.17;;;4.10;;
41629;SDS011;27322;49.488;8.480;2022-08-11T16:15:38;2.83;;;1.10;;
41629;SDS011;27322;49.488;8.480;2022-08-11T16:18:27;2.40;;;1.20;;
41629;SDS011;27322;49.488;8.480;2022-08-11T16:21:06;3.28;;;1.23;;
41629;SDS011;27322;49.488;8.480;2022-08-11T16:23:35;3.72;;;1.40;;
41629;SDS011;27322;49.488;8.480;2022-08-11T16:26:04;3.78;;;1.20;;
41629;SDS011;27322;49.488;8.480;2022-08-11T16:28:30;3.33;;;1.23;;
41629;SDS011;27322;49.488;8.480;2022-08-11T16:30:58;2.38;;;1.20;;
41629;SDS011;27322;49.488;8.480;2022-08-11T16:33:26;5.00;;;1.52;;
41629;SDS011;27322;49.488;8.480;2022-08-11T16:35:54;2.85;;;1.50;;
41629;SDS011;27322;49.488;8.480;2022-08-11T16:38:39;6.80;;;1.73;;
41629;SDS011;27322;49.488;8.480;2022-08-11T16:41:08;3.25;;;1.50;;
41629;SDS011;27322;49.488;8.480;2022-08-11T16:43:45;3.00;;;1.40;;
41629;SDS011;27322;49.488;8.480;2022-08-11T16:46:31;3.17;;;1.40;;
41629;SDS011;27322;49.488;8.480;2022-08-11T16:49:20;3.13;;;1.52;;
41629;SDS011;27322;49.488;8.480;2022-08-11T16:51:50;6.65;;;1.50;;
41629;SDS011;27322;49.488;8.480;2022-08-11T16:54:17;5.03;;;1.52;;
41629;SDS011;27322;49.488;8.480;2022-08-11T16:59:21;4.22;;;1.30;;
41629;SDS011;27322;49.488;8.480;2022-08-11T17:01:52;3.75;;;1.40;;
41629;SDS011;27322;49.488;8.480;2022-08-11T17:04:35;4.78;;;1.55;;
41629;SDS011;27322;49.488;8.480;2022-08-11T17:07:28;3.92;;;1.35;;
41629;SDS011;27322;49.488;8.480;2022-08-11T17:10:36;7.35;;;1.67;;
41629;SDS011;27322;49.488;8.480;2022-08-11T17:13:40;3.85;;;1.35;;
41629;SDS011;27322;49.488;8.480;2022-08-11T17:16:08;2.85;;;1.50;;
41629;SDS011;27322;49.488;8.480;2022-08-11T17:24:27;3.42;;;1.70;;
41629;SDS011;27322;49.488;8.480;2022-08-11T17:26:55;3.25;;;1.40;;
41629;SDS011;27322;49.488;8.480;2022-08-11T17:29:36;3.30;;;1.40;;
41629;SDS011;27322;49.488;8.480;2022-08-11T17:32:05;3.13;;;1.33;;
41629;SDS011;27322;49.488;8.480;2022-08-11T17:34:53;3.78;;;1.27;;
41629;SDS011;27322;49.488;8.480;2022-08-11T17:37:40;2.97;;;1.35;;
41629;SDS011;27322;49.488;8.480;2022-08-11T17:40:09;3.67;;;1.40;;
41629;SDS011;27322;49.488;8.480;2022-08-11T17:42:37;4.03;;;1.50;;
41629;SDS011;27322;49.488;8.480;2022-08-11T17:45:24;8.20;;;1.58;;
41629;SDS011;27322;49.488;8.480;2022-08-11T17:48:10;2.45;;;1.20;;
41629;SDS011;27322;49.488;8.480;2022-08-11T17:50:50;3.60;;;1.40;;
41629;SDS011;27322;49.488;8.480;2022-08-11T17:53:41;7.03;;;1.70;;
41629;SDS011;27322;49.488;8.480;2022-08-11T17:56:27;3.33;;;1.63;;
41629;SDS011;27322;49.488;8.480;2022-08-11T17:59:14;4.65;;;1.38;;
41629;SDS011;27322;49.488;8.480;2022-08-11T18:01:59;2.78;;;1.40;;
41629;SDS011;27322;49.488;8.480;2022-08-11T18:04:48;2.90;;;1.42;;
41629;SDS011;27322;49.488;8.480;2022-08-11T18:07:17;3.63;;;1.40;;
41629;SDS011;27322;49.488;8.480;2022-08-11T18:10:03;4.13;;;1.77;;
41629;SDS011;27322;49.488;8.480;2022-08-11T18:12:50;3.13;;;1.25;;
41629;SDS011;27322;49.488;8.480;2022-08-11T18:15:39;3.92;;;1.50;;
41629;SDS011;27322;49.488;8.480;2022-08-11T18:18:26;4.18;;;1.60;;
41629;SDS011;27322;49.488;8.480;2022-08-11T18:21:12;3.78;;;1.27;;
41629;SDS011;27322;49.488;8.480;2022-08-11T18:23:58;3.58;;;1.45;;
41629;SDS011;27322;49.488;8.480;2022-08-11T18:26:49;4.65;;;1.70;;
41629;SDS011;27322;49.488;8.480;2022-08-11T18:29:34;6.55;;;1.70;;
41629;SDS011;27322;49.488;8.480;2022-08-11T18:32:24;3.28;;;1.38;;
41629;SDS011;27322;49.488;8.480;2022-08-11T18:35:10;6.55;;;1.40;;
41629;SDS011;27322;49.488;8.480;2022-08-11T18:37:56;5.15;;;1.45;;
41629;SDS011;27322;49.488;8.480;2022-08-11T18:40:42;2.88;;;1.40;;
41629;SDS011;27322;49.488;8.480;2022-08-11T18:43:27;4.85;;;1.40;;
41629;SDS011;27322;49.488;8.480;2022-08-11T18:46:14;3.22;;;1.33;;
41629;SDS011;27322;49.488;8.480;2022-08-11T18:49:02;2.75;;;1.20;;
41629;SDS011;27322;49.488;8.480;2022-08-11T18:52:08;2.80;;;1.50;;
41629;SDS011;27322;49.488;8.480;2022-08-11T18:54:56;6.10;;;1.40;;
41629;SDS011;27322;49.488;8.480;2022-08-11T18:57:42;2.17;;;1.30;;
41629;SDS011;27322;49.488;8.480;2022-08-11T19:00:29;5.25;;;1.50;;
41629;SDS011;27322;49.488;8.480;2022-08-11T19:03:16;4.57;;;1.40;;
41629;SDS011;27322;49.488;8.480;2022-08-11T19:06:02;3.30;;;1.30;;
41629;SDS011;27322;49.488;8.480;2022-08-11T19:08:52;2.42;;;1.20;;
41629;SDS011;27322;49.488;8.480;2022-08-11T19:11:40;2.90;;;1.20;;
41629;SDS011;27322;49.488;8.480;2022-08-11T19:14:26;3.80;;;1.60;;
41629;SDS011;27322;49.488;8.480;2022-08-11T19:17:13;4.45;;;1.80;;
41629;SDS011;27322;49.488;8.480;2022-08-11T19:19:58;6.20;;;1.88;;
41629;SDS011;27322;49.488;8.480;2022-08-11T19:22:44;4.32;;;1.65;;
41629;SDS011;27322;49.488;8.480;2022-08-11T19:25:30;3.63;;;1.70;;
41629;SDS011;27322;49.488;8.480;2022-08-11T19:28:15;5.53;;;1.67;;
41629;SDS011;27322;49.488;8.480;2022-08-11T19:31:02;5.65;;;1.70;;
41629;SDS011;27322;49.488;8.480;2022-08-11T19:33:46;6.72;;;2.20;;
41629;SDS011;27322;49.488;8.480;2022-08-11T19:36:32;4.43;;;1.77;;
41629;SDS011;27322;49.488;8.480;2022-08-11T19:39:17;4.25;;;1.80;;
41629;SDS011;27322;49.488;8.480;2022-08-11T19:42:05;3.92;;;1.50;;
41629;SDS011;27322;49.488;8.480;2022-08-11T19:44:52;2.90;;;1.23;;
41629;SDS011;27322;49.488;8.480;2022-08-11T19:47:37;4.60;;;1.60;;
41629;SDS011;27322;49.488;8.480;2022-08-11T19:50:22;4.43;;;1.67;;
41629;SDS011;27322;49.488;8.480;2022-08-11T19:55:51;5.25;;;1.98;;
41629;SDS011;27322;49.488;8.480;2022-08-11T19:58:37;3.42;;;1.83;;
41629;SDS011;27322;49.488;8.480;2022-08-11T20:01:22;4.30;;;2.10;;
41629;SDS011;27322;49.488;8.480;2022-08-11T20:04:07;4.60;;;1.92;;
41629;SDS011;27322;49.488;8.480;2022-08-11T20:06:52;4.35;;;1.90;;
41629;SDS011;27322;49.488;8.480;2022-08-11T20:09:39;5.18;;;1.65;;
41629;SDS011;27322;49.488;8.480;2022-08-11T20:12:26;5.10;;;1.90;;
41629;SDS011;27322;49.488;8.480;2022-08-11T20:15:12;5.53;;;1.88;;
41629;SDS011;27322;49.488;8.480;2022-08-11T20:18:00;3.72;;;1.95;;
41629;SDS011;27322;49.488;8.480;2022-08-11T20:20:47;4.82;;;1.67;;
41629;SDS011;27322;49.488;8.480;2022-08-11T20:23:33;5.53;;;1.90;;
41629;SDS011;27322;49.488;8.480;2022-08-11T20:26:19;5.32;;;2.00;;
41629;SDS011;27322;49.488;8.480;2022-08-11T20:29:03;6.22;;;1.92;;